createdAt,value
2022-11-12T00:01:52.019Z,6.88
2022-11-12T00:07:00.441Z,6.83
2022-11-12T00:12:09.114Z,6.78
2022-11-12T00:17:21.363Z,6.74
2022-11-12T00:22:29.736Z,6.69
2022-11-12T00:27:39.909Z,6.65
2022-11-12T00:32:50.991Z,6.55
2022-11-12T00:38:02.114Z,6.52
2022-11-12T00:43:10.654Z,6.54
2022-11-12T00:48:21.370Z,6.45
2022-11-12T00:53:31.752Z,6.42
2022-11-12T00:58:39.807Z,6.25
2022-11-12T01:03:52.618Z,6.32
2022-11-12T01:09:01.407Z,6.31
2022-11-12T01:14:12.100Z,6.29
2022-11-12T01:19:25.472Z,6.28
2022-11-12T01:24:34.042Z,6.23
2022-11-12T01:29:42.517Z,6.18
2022-11-12T01:34:53.963Z,6.13
2022-11-12T01:40:02.188Z,6.10
2022-11-12T01:45:17.308Z,6.06
2022-11-12T01:50:34.590Z,6.13
2022-11-12T01:55:47.750Z,6.10
2022-11-12T02:00:56.258Z,5.96
2022-11-12T02:06:14.689Z,5.97
2022-11-12T02:11:24.551Z,6.01
2022-11-12T02:16:36.218Z,6.02
2022-11-12T02:21:47.930Z,5.96
2022-11-12T02:26:58.339Z,5.85
2022-11-12T02:32:07.295Z,5.92
2022-11-12T02:37:18.188Z,5.87
2022-11-12T02:42:29.620Z,5.89
2022-11-12T02:47:38.145Z,5.82
2022-11-12T02:52:50.099Z,5.71
2022-11-12T02:58:00.533Z,5.66
2022-11-12T03:03:08.575Z,5.81
2022-11-12T03:08:19.704Z,5.72
2022-11-12T03:13:28.035Z,5.78
2022-11-12T03:18:37.868Z,5.75
2022-11-12T03:23:48.639Z,5.79
2022-11-12T03:28:57.988Z,5.79
2022-11-12T03:34:06.360Z,5.73
2022-11-12T03:39:17.185Z,5.79
2022-11-12T03:44:25.684Z,5.81
2022-11-12T03:49:34.052Z,5.77
2022-11-12T03:54:46.078Z,5.73
2022-11-12T03:59:54.344Z,5.64
2022-11-12T04:05:15.368Z,5.57
2022-11-12T04:10:26.389Z,5.64
2022-11-12T04:15:34.742Z,5.65
2022-11-12T04:21:01.452Z,5.61
2022-11-12T04:26:27.598Z,5.64
2022-11-12T04:31:38.451Z,5.61
2022-11-12T04:36:46.576Z,5.64
2022-11-12T04:42:09.900Z,5.75
2022-11-12T04:47:18.164Z,5.76
2022-11-12T04:52:26.833Z,5.72
2022-11-12T04:57:38.302Z,5.70
2022-11-12T05:02:49.123Z,5.72
2022-11-12T05:07:57.292Z,5.67
2022-11-12T05:13:08.162Z,5.58
2022-11-12T05:18:16.199Z,5.46
2022-11-12T05:23:27.990Z,5.52
2022-11-12T05:28:40.653Z,5.52
2022-11-12T05:33:49.107Z,5.44
2022-11-12T05:38:57.685Z,5.44
2022-11-12T05:44:09.769Z,5.42
2022-11-12T05:49:17.976Z,5.35
2022-11-12T05:54:26.277Z,5.31
2022-11-12T05:59:37.022Z,5.32
2022-11-12T06:04:45.144Z,5.28
2022-11-12T06:09:53.179Z,5.17
2022-11-12T06:15:03.779Z,5.19
2022-11-12T06:20:13.501Z,5.10
2022-11-12T06:25:21.613Z,5.10
2022-11-12T06:30:32.868Z,5.11
2022-11-12T06:35:43.078Z,5.02
2022-11-12T06:40:51.805Z,5.00
2022-11-12T06:46:09.538Z,5.01
2022-11-12T06:51:22.104Z,4.94
2022-11-12T06:56:30.727Z,4.98
2022-11-12T07:01:42.013Z,4.98
2022-11-12T07:06:50.556Z,5.00
2022-11-12T07:12:01.662Z,4.96
2022-11-12T07:17:12.441Z,4.99
2022-11-12T07:22:21.326Z,5.04
2022-11-12T07:27:34.611Z,5.09
2022-11-12T07:32:51.656Z,5.18
2022-11-12T07:38:04.545Z,5.13
2022-11-12T07:43:12.988Z,5.26
2022-11-12T07:48:24.620Z,5.15
2022-11-12T07:53:34.001Z,5.29
2022-11-12T07:58:42.429Z,5.42
2022-11-12T08:03:56.015Z,5.50
2022-11-12T08:09:08.795Z,5.64
2022-11-12T08:14:17.123Z,5.62
2022-11-12T08:19:27.870Z,5.67
2022-11-12T08:24:36.341Z,5.82
2022-11-12T08:29:44.836Z,5.87
2022-11-12T08:34:55.723Z,5.99
2022-11-12T08:40:03.702Z,6.04
2022-11-12T08:45:12.917Z,6.11
2022-11-12T08:50:24.219Z,6.27
2022-11-12T08:55:33.417Z,6.45
2022-11-12T09:00:44.332Z,6.59
2022-11-12T09:05:55.642Z,6.77
2022-11-12T09:11:03.748Z,6.98
2022-11-12T09:16:13.094Z,7.15
2022-11-12T09:21:27.403Z,7.85
2022-11-12T09:26:36.552Z,8.84
2022-11-12T09:31:44.915Z,9.82
2022-11-12T09:36:55.625Z,10.68
2022-11-12T09:42:11.602Z,11.33
2022-11-12T09:47:26.842Z,11.97
2022-11-12T09:52:42.349Z,12.26
2022-11-12T09:57:54.024Z,12.83
2022-11-12T10:03:10.388Z,13.21
2022-11-12T10:08:37.011Z,13.43
2022-11-12T10:13:54.036Z,13.51
2022-11-12T10:19:15.795Z,13.58
2022-11-12T10:24:31.771Z,13.62
2022-11-12T10:29:50.071Z,13.57
2022-11-12T10:35:02.898Z,13.44
2022-11-12T10:40:35.460Z,13.43
2022-11-12T10:45:43.940Z,13.47
2022-11-12T10:50:52.570Z,13.45
2022-11-12T10:56:05.215Z,13.48
2022-11-12T11:01:20.605Z,13.49
2022-11-12T11:06:35.281Z,13.54
2022-11-12T11:11:53.733Z,13.73
2022-11-12T11:17:08.633Z,13.76
2022-11-12T11:22:42.222Z,13.84
2022-11-12T11:28:06.873Z,13.97
2022-11-12T11:33:40.812Z,14.02
2022-11-12T11:38:59.479Z,14.07
2022-11-12T11:44:23.030Z,14.15
2022-11-12T11:50:01.701Z,14.15
2022-11-12T11:55:21.872Z,14.07
2022-11-12T12:00:39.982Z,14.11
2022-11-12T12:06:01.748Z,14.12
2022-11-12T12:11:19.155Z,14.18
2022-11-12T12:16:45.383Z,14.30
2022-11-12T12:21:55.915Z,14.41
2022-11-12T12:27:12.846Z,14.46
2022-11-12T12:32:32.856Z,14.54
2022-11-12T12:37:49.003Z,14.62
2022-11-12T12:43:02.858Z,14.59
2022-11-12T12:48:19.869Z,14.80
2022-11-12T12:53:38.384Z,14.83
2022-11-12T12:58:49.820Z,14.84
2022-11-12T13:04:03.408Z,14.84
2022-11-12T13:09:28.842Z,14.83
2022-11-12T13:15:10.661Z,14.88
2022-11-12T13:20:37.476Z,14.92
2022-11-12T13:25:48.420Z,14.96
2022-11-12T13:31:10.179Z,15.05
2022-11-12T13:36:32.594Z,15.03
2022-11-12T13:41:55.570Z,15.09
2022-11-12T13:47:04.826Z,15.06
2022-11-12T13:52:18.855Z,14.93
2022-11-12T13:57:31.277Z,15.05
2022-11-12T14:02:41.807Z,15.02
2022-11-12T14:08:18.854Z,15.32
2022-11-12T14:13:53.180Z,15.82
2022-11-12T14:19:31.252Z,16.05
2022-11-12T14:24:44.765Z,15.93
2022-11-12T14:30:11.084Z,15.75
2022-11-12T14:35:28.567Z,15.62
2022-11-12T14:40:48.257Z,15.45
2022-11-12T14:46:00.944Z,15.41
2022-11-12T14:51:14.418Z,15.32
2022-11-12T14:56:35.408Z,15.26
2022-11-12T15:02:31.364Z,15.16
2022-11-12T15:07:42.952Z,15.04
2022-11-12T15:12:54.414Z,15.00
2022-11-12T15:18:05.780Z,14.75
2022-11-12T15:23:20.441Z,14.66
2022-11-12T15:28:31.509Z,14.42
2022-11-12T15:33:41.091Z,14.23
2022-11-12T15:38:54.684Z,14.03
2022-11-12T15:44:05.668Z,13.83
2022-11-12T15:49:15.929Z,13.72
2022-11-12T15:54:27.228Z,13.56
2022-11-12T15:59:41.056Z,13.38
2022-11-12T16:04:49.710Z,13.21
2022-11-12T16:10:02.905Z,13.08
2022-11-12T16:15:18.541Z,12.97
2022-11-12T16:20:32.401Z,12.83
2022-11-12T16:25:45.107Z,12.63
2022-11-12T16:30:56.406Z,12.61
2022-11-12T16:36:05.013Z,12.28
2022-11-12T16:41:14.982Z,12.28
2022-11-12T16:46:31.790Z,12.16
2022-11-12T16:51:40.323Z,12.05
2022-11-12T16:56:48.826Z,11.94
2022-11-12T17:01:59.525Z,11.65
2022-11-12T17:07:08.868Z,11.68
2022-11-12T17:12:17.257Z,11.60
2022-11-12T17:17:28.654Z,11.51
2022-11-12T17:22:37.547Z,11.43
2022-11-12T17:27:46.180Z,11.34
2022-11-12T17:33:01.723Z,11.30
2022-11-12T17:38:09.957Z,11.13
2022-11-12T17:43:18.677Z,11.13
2022-11-12T17:48:29.949Z,11.03
2022-11-12T17:53:38.482Z,10.94
2022-11-12T17:58:48.539Z,10.81
2022-11-12T18:04:00.743Z,10.78
2022-11-12T18:09:11.054Z,10.73
2022-11-12T18:14:20.028Z,10.72
2022-11-12T18:19:30.769Z,10.64
2022-11-12T18:24:39.529Z,10.60
2022-11-12T18:29:48.341Z,10.53
2022-11-12T18:34:59.337Z,10.40
2022-11-12T18:40:08.196Z,10.29
2022-11-12T18:45:18.025Z,10.30
2022-11-12T18:50:29.333Z,10.27
2022-11-12T18:55:37.903Z,10.19
2022-11-12T19:00:47.253Z,10.13
2022-11-12T19:06:06.590Z,10.08
2022-11-12T19:11:16.426Z,10.01
2022-11-12T19:16:26.706Z,9.98
2022-11-12T19:21:37.472Z,9.87
2022-11-12T19:26:45.735Z,9.85
2022-11-12T19:31:54.178Z,9.86
2022-11-12T19:37:31.738Z,9.78
2022-11-12T19:42:33.700Z,9.72
2022-11-12T19:47:43.086Z,9.76
2022-11-12T19:52:57.007Z,9.65
2022-11-12T19:58:05.948Z,9.66
2022-11-12T20:03:14.830Z,9.62
2022-11-12T20:08:27.132Z,9.57
2022-11-12T20:13:38.974Z,9.52
2022-11-12T20:18:51.046Z,9.47
2022-11-12T20:24:04.164Z,9.41
2022-11-12T20:29:13.088Z,9.39
2022-11-12T20:34:25.335Z,9.38
2022-11-12T20:39:37.639Z,9.28
2022-11-12T20:44:46.372Z,9.30
2022-11-12T20:49:55.195Z,9.27
2022-11-12T20:55:08.060Z,9.18
2022-11-12T21:00:24.302Z,9.18
2022-11-12T21:05:36.171Z,9.15
2022-11-12T21:10:52.311Z,9.14
2022-11-12T21:16:06.416Z,9.12
2022-11-12T21:21:20.460Z,9.07
2022-11-12T21:26:32.813Z,9.04
2022-11-12T21:31:51.540Z,9.00
2022-11-12T21:37:01.620Z,8.99
2022-11-12T21:42:19.251Z,8.91
2022-11-12T21:47:29.204Z,8.89
2022-11-12T21:52:42.325Z,8.88
2022-11-12T21:57:54.400Z,8.82
2022-11-12T22:03:04.486Z,8.69
2022-11-12T22:08:14.742Z,8.73
2022-11-12T22:13:28.020Z,8.71
2022-11-12T22:18:37.986Z,8.70
2022-11-12T22:23:48.408Z,8.68
2022-11-12T22:29:02.734Z,8.60
2022-11-12T22:34:13.002Z,8.59
2022-11-12T22:39:22.352Z,8.54
2022-11-12T22:44:34.724Z,8.54
2022-11-12T22:49:44.889Z,8.48
2022-11-12T22:54:56.474Z,8.47
2022-11-12T23:00:13.983Z,8.52
2022-11-12T23:05:26.114Z,8.47
2022-11-12T23:10:40.426Z,8.50
2022-11-12T23:15:57.659Z,8.51
2022-11-12T23:21:08.349Z,8.51
2022-11-12T23:26:19.160Z,8.51
2022-11-12T23:31:33.762Z,8.50
2022-11-12T23:36:42.920Z,8.48
2022-11-12T23:42:00.515Z,8.51
2022-11-12T23:47:12.635Z,8.49
2022-11-12T23:52:22.063Z,8.46
2022-11-12T23:57:33.417Z,8.45
